Nearby METAR* Reports

*"METAR [Météorologique Aviation Régulière] is the international standard code format for hourly surface weather observations which is analogous to the SA coding currently used in the US. The acronym roughly translates from French as Aviation Routine Weather Report." (Source: https://www.ncdc.noaa.gov/wdcmet/data-access-search-viewer-tools/metar-terminal-aerodrome-forecast-taf-faq)

 

KTEB - Teterboro, New Jersey, USA
Distance from station: ENE 2mi, 3km
Updated: 11/30/2021 8:51am
Overcast
Overcast
 Wind from varies
Wind: varies 5 mph , 7 km/h
Temperature: 36°F , 2°C
Wind Chill: 32°F , 0°C
Dew Point: 25°F , -4°C
Humidity: 65%
Barometer: 30.02 inHg , 1016.6 hPa
Clouds: Overcast
Visibility: 10 miles , 16 km
Cloud details: Overcast 6500 ft
2021/11/30 13:51 KTEB 301351Z VRB04KT 10SM OVC065 02/M04 A3002 RMK AO2 SLP166 T00171039
KNYC - Nyc/Central Park, New York, USA
Distance from station: SE 8mi, 13km
Updated: 11/30/2021 8:51am
Overcast
Overcast
 Wind from WSW
Wind: WSW 8 mph , 13 km/h
Temperature: 37°F , 3°C
Wind Chill: 31°F , -1°C
Dew Point: 25°F , -4°C
Humidity: 60%
Barometer: 30.04 inHg , 1017.3 hPa
Clouds: Overcast
Visibility: 10 miles , 16 km
Cloud details: Overcast 6500 ft
2021/11/30 13:51 KNYC 301351Z 24007KT 200V280 10SM OVC065 03/M04 A3004 RMK AO2 SLP167 T00281039
KCDW - Caldwell, New Jersey, USA
Distance from station: W 11mi, 17km
Updated: 11/30/2021 8:53am
Overcast
Overcast
 Wind from calm
Wind: Calm
Temperature: 34°F , 1°C
Dew Point: 25°F , -4°C
Humidity: 70%
Barometer: 30.03 inHg , 1016.9 hPa
Clouds: Overcast
Visibility: 10 miles , 16 km
Cloud details: Overcast 6500 ft
2021/11/30 13:53 KCDW 301353Z 00000KT 10SM OVC065 01/M04 A3003 RMK AO2 SLP175 T00111044
 
KLGA - Nyc/La Guardia, New York, USA
Distance from station: ESE 12mi, 19km
Updated: 11/30/2021 8:51am
Overcast
Overcast
 Wind from SSW
Wind: SSW 10 mph , 17 km/h
Temperature: 37°F , 3°C
Wind Chill: 30°F , -1°C
Dew Point: 23°F , -5°C
Humidity: 56%
Barometer: 30.03 inHg , 1016.9 hPa
Clouds: Overcast
Visibility: 10 miles , 16 km
Cloud details: Mostly cloudy 6500 ft
Overcast 25000 ft
2021/11/30 13:51 KLGA 301351Z 21009KT 10SM BKN065 OVC250 03/M05 A3003 RMK AO2 SLP167 T00331050
KEWR - Newark, New Jersey, USA
Distance from station: SSW 13mi, 20km
Updated: 11/30/2021 8:51am
Overcast
Overcast
 Wind from SW
Wind: SW 6 mph , 9 km/h
Temperature: 36°F , 2°C
Wind Chill: 31°F , -1°C
Dew Point: 27°F , -3°C
Humidity: 70%
Barometer: 30.03 inHg , 1016.9 hPa
Clouds: Overcast
Visibility: 10 miles , 16 km
Cloud details: Mostly cloudy 6500 ft
Mostly cloudy 15000 ft
Overcast 25000 ft
2021/11/30 13:51 KEWR 301351Z 22005KT 10SM BKN065 BKN150 OVC250 02/M03 A3003 RMK AO2 SLP169 T00221033
KMMU - Morristown Muni, New Jersey, USA
Distance from station: WSW 18mi, 29km
Updated: 11/30/2021 8:45am
Overcast
Overcast
 Wind from calm
Wind: Calm
Temperature: 30°F , -1°C
Dew Point: 28°F , -2°C
Humidity: 93%
Barometer: 30.03 inHg , 1016.9 hPa
Clouds: Overcast
Visibility: 10 miles , 16 km
Cloud details: Overcast 6500 ft
2021/11/30 13:45 KMMU 301345Z 00000KT 10SM OVC065 M01/M02 A3003
 
KLDJ - Linden, New Jersey, USA
Distance from station: SSW 19mi, 30km
Updated: 11/30/2021 9:15am
Overcast
Overcast
 Wind from W
Wind: W 5 mph , 7 km/h
Temperature: 36°F , 2°C
Wind Chill: 32°F , 0°C
Dew Point: 25°F , -4°C
Humidity: 65%
Barometer: 30.04 inHg , 1017.3 hPa
Clouds: Overcast
Visibility: 10 miles , 16 km
Cloud details: Partly cloudy 5000 ft
Mostly cloudy 6500 ft
Overcast 7500 ft
2021/11/30 14:15 KLDJ 301415Z AUTO 27004KT 10SM SCT050 BKN065 OVC075 02/M04 A3004 RMK AO2 T00161045
KJFK - Nyc/Jfk Arpt, New York, USA
Distance from station: SE 23mi, 36km
Updated: 11/30/2021 8:51am
Overcast
Overcast
 Wind from WSW
Wind: WSW 6 mph , 9 km/h
Temperature: 37°F , 3°C
Wind Chill: 32°F , 0°C
Dew Point: 28°F , -2°C
Humidity: 70%
Barometer: 30.05 inHg , 1017.6 hPa
Clouds: Overcast
Visibility: 10 miles , 16 km
Cloud details: Few Clouds 3500 ft
Mostly cloudy 6500 ft
Overcast 25000 ft
2021/11/30 13:51 KJFK 301351Z 24005KT 10SM FEW035 BKN065 OVC250 03/M02 A3005 RMK AO2 SLP174 T00281022
KHPN - White Plains, New York, USA
Distance from station: NE 25mi, 40km
Updated: 11/30/2021 8:56am
Mostly cloudy
Mostly cloudy
 Wind from calm
Wind: Calm
Temperature: 30°F , -1°C
Dew Point: 21°F , -6°C
Humidity: 69%
Barometer: 30.00 inHg , 1015.9 hPa
Clouds: Mostly cloudy
Visibility: 10 miles , 16 km
Cloud details: Mostly cloudy 6000 ft
2021/11/30 13:56 KHPN 301356Z 00000KT 10SM BKN060 M01/M06 A3000 RMK AO2 SLP167 T10061056
 
KSMQ - Somerville, New Jersey, USA
Distance from station: WSW 35mi, 56km
Updated: 11/30/2021 8:53am
Overcast
Overcast
 
Temperature: 30°F , -1°C
Dew Point: 28°F , -2°C
Humidity: 93%
Barometer: 30.02 inHg , 1016.6 hPa
Clouds: Overcast
Visibility: 10 miles , 16 km
Cloud details: Overcast 8000 ft
2021/11/30 13:53 KSMQ 301353Z AUTO 10SM OVC080 M01/M02 A3002 RMK AO2 SLP166 T10061022
K12N - Andover, New Jersey, USA
Distance from station: WNW 36mi, 57km
Updated: 11/30/2021 8:54am

 Wind from S
Wind: S 5 mph , 7 km/h
Temperature: 32°F , 0°C
Wind Chill: 27°F , -3°C
Dew Point: 27°F , -3°C
Humidity: 80%
Barometer: 30.00 inHg , 1015.9 hPa
2021/11/30 13:54 K12N 301354Z AUTO 19004KT 00/M03 A3000 RMK AO1 SLP169 T00001028
KFRG - Farmingdale, New York, USA
Distance from station: ESE 36mi, 58km
Updated: 11/30/2021 8:53am
Overcast
Overcast
 Wind from calm
Wind: Calm
Temperature: 34°F , 1°C
Dew Point: 23°F , -5°C
Humidity: 65%
Barometer: 30.03 inHg , 1016.9 hPa
Clouds: Overcast
Visibility: 10 miles , 16 km
Cloud details: Overcast 6500 ft
2021/11/30 13:53 KFRG 301353Z 00000KT 10SM OVC065 01/M05 A3003 RMK AO2 SLP170 T00111050
 
KFWN - Sussex, New Jersey, USA
Distance from station: NW 37mi, 60km
Updated: 11/30/2021 4:53am
NOT Current
Overcast
Overcast
 Wind from WSW
Wind: WSW 3 mph , 6 km/h
Temperature: 23°F , -5°C
Dew Point: 21°F , -6°C
Humidity: 93%
Barometer: 29.98 inHg , 1015.2 hPa
Clouds: Overcast
Visibility: 10 miles , 16 km
Cloud details: Overcast 6000 ft
2021/11/30 09:53 KFWN 300953Z AUTO 24003KT 10SM OVC060 M05/M06 A2998 RMK AO2 SLP156 T10501061 PWINO FZRANO $
KSWF - Newburgh/Stewart, New York, USA
Distance from station: 0 44mi, 72km
Updated: 11/30/2021 8:45am
Overcast
Overcast
 Wind from calm
Wind: Calm
Temperature: 28°F , -2°C
Dew Point: 23°F , -5°C
Humidity: 80%
Barometer: 29.98 inHg , 1015.2 hPa
Clouds: Overcast
Visibility: 10 miles , 16 km
Cloud details: Overcast 5000 ft
2021/11/30 13:45 KSWF 301345Z 00000KT 10SM OVC050 M02/M05 A2998
KMGJ - Montgomery, New York, USA
Distance from station: NNW 47mi, 75km
Updated: 11/30/2021 8:54am
Overcast
Overcast
 Wind from SSW
Wind: SSW 3 mph , 6 km/h
Temperature: 28°F , -2°C
Dew Point: 21°F , -6°C
Humidity: 74%
Barometer: 29.98 inHg , 1015.2 hPa
Clouds: Overcast
Visibility: 10 miles , 16 km
Cloud details: Overcast 6000 ft
2021/11/30 13:54 KMGJ 301354Z AUTO 21003KT 10SM OVC060 M02/M06 A2998 RMK AO2 SLP158 T10221056
 
KDXR - Danbury, Connecticut, USA
Distance from station: NE 47mi, 76km
Updated: 11/30/2021 8:53am
Overcast
Overcast
 Wind from calm
Wind: Calm
Temperature: 28°F , -2°C
Dew Point: 21°F , -6°C
Humidity: 74%
Barometer: 30.01 inHg , 1016.3 hPa
Clouds: Overcast
Visibility: 10 miles , 16 km
Cloud details: Overcast 5000 ft
2021/11/30 13:53 KDXR 301353Z 00000KT 10SM OVC050 M02/M06 A3001 RMK AO2 SLP165 T10171056
KBLM - Belmar/Farmdale, New Jersey, USA
Distance from station: S 48mi, 77km
Updated: 11/30/2021 8:56am
Mostly cloudy
Mostly cloudy
 Wind from SW
Wind: SW 5 mph , 7 km/h
Temperature: 34°F , 1°C
Wind Chill: 29°F , -2°C
Dew Point: 25°F , -4°C
Humidity: 70%
Barometer: 30.05 inHg , 1017.6 hPa
Clouds: Mostly cloudy
Visibility: 10 miles , 16 km
Cloud details: Mostly cloudy 6000 ft
2021/11/30 13:56 KBLM 301356Z AUTO 22004KT 10SM BKN060 01/M04 A3005 RMK AO2 SLP179 T00061039 FZRANO PNO $